createdAt,value
2019-06-07T00:01:21.118Z,100.00
2019-06-07T00:03:47.683Z,100.00
2019-06-07T00:06:16.983Z,100.00
2019-06-07T00:08:42.338Z,100.00
2019-06-07T00:11:11.041Z,100.00
2019-06-07T00:13:37.063Z,100.00
2019-06-07T00:16:03.572Z,100.00
2019-06-07T00:18:29.946Z,100.00
2019-06-07T00:20:56.739Z,100.00
2019-06-07T00:23:23.274Z,100.00
2019-06-07T00:25:49.640Z,100.00
2019-06-07T00:28:17.322Z,100.00
2019-06-07T00:30:51.697Z,100.00
2019-06-07T00:33:16.644Z,100.00
2019-06-07T00:35:41.079Z,100.00
2019-06-07T00:38:07.508Z,100.00
2019-06-07T00:40:33.939Z,100.00
2019-06-07T00:43:00.321Z,100.00
2019-06-07T00:45:26.760Z,100.00
2019-06-07T00:47:53.173Z,100.00
2019-06-07T00:50:23.523Z,100.00
2019-06-07T00:53:23.494Z,100.00
2019-06-07T00:55:18.176Z,100.00
2019-06-07T00:57:44.618Z,100.00
2019-06-07T01:00:14.963Z,100.00
2019-06-07T01:02:41.625Z,100.00
2019-06-07T01:05:08.558Z,100.00
2019-06-07T01:07:35.056Z,100.00
2019-06-07T01:10:01.458Z,100.00
2019-06-07T01:12:27.837Z,100.00
2019-06-07T01:14:54.246Z,100.00
2019-06-07T01:17:39.928Z,100.00
2019-06-07T01:19:53.703Z,100.00
2019-06-07T01:22:22.647Z,100.00
2019-06-07T01:24:48.381Z,100.00
2019-06-07T01:27:16.699Z,100.00
2019-06-07T01:29:43.305Z,100.00
2019-06-07T01:32:09.660Z,100.00
2019-06-07T01:34:36.054Z,100.00
2019-06-07T01:37:02.524Z,100.00
2019-06-07T01:39:31.504Z,100.00
2019-06-07T01:41:57.342Z,100.00
2019-06-07T01:44:27.747Z,100.00
2019-06-07T01:46:52.040Z,100.00
2019-06-07T01:49:19.706Z,100.00
2019-06-07T01:51:46.211Z,100.00
2019-06-07T01:54:49.261Z,100.00
2019-06-07T01:56:40.874Z,100.00
2019-06-07T01:59:07.248Z,100.00
2019-06-07T02:01:35.343Z,100.00
2019-06-07T02:04:02.320Z,100.00
2019-06-07T02:06:31.912Z,100.00
2019-06-07T02:08:57.569Z,100.00
2019-06-07T02:11:26.005Z,100.00
2019-06-07T02:13:52.342Z,100.00
2019-06-07T02:16:19.312Z,100.00
2019-06-07T02:19:01.148Z,100.00
2019-06-07T02:21:14.105Z,100.00
2019-06-07T02:23:40.731Z,100.00
2019-06-07T02:26:07.202Z,100.00
2019-06-07T02:28:44.278Z,100.00
2019-06-07T02:31:01.948Z,100.00
2019-06-07T02:33:33.641Z,100.00
2019-06-07T02:35:56.598Z,100.00
2019-06-07T02:38:27.067Z,100.00
2019-06-07T02:40:51.361Z,100.00
2019-06-07T02:43:17.743Z,100.00
2019-06-07T02:45:44.157Z,100.00
2019-06-07T02:48:10.522Z,100.00
2019-06-07T02:50:38.766Z,100.00
2019-06-07T02:53:05.202Z,100.00
2019-06-07T02:55:37.186Z,100.00
2019-06-07T02:58:00.124Z,100.00
2019-06-07T03:00:58.696Z,100.00
2019-06-07T03:03:10.025Z,100.00
2019-06-07T03:05:40.761Z,100.00
2019-06-07T03:08:06.709Z,100.00
2019-06-07T03:10:36.911Z,100.00
2019-06-07T03:13:04.345Z,100.00
2019-06-07T03:15:39.804Z,100.00
2019-06-07T03:18:11.391Z,100.00
2019-06-07T03:20:39.777Z,100.00
2019-06-07T03:23:06.374Z,100.00
2019-06-07T03:25:37.290Z,100.00
2019-06-07T03:28:05.381Z,100.00
2019-06-07T03:30:46.890Z,100.00
2019-06-07T03:33:00.394Z,100.00
2019-06-07T03:35:28.483Z,100.00
2019-06-07T03:37:55.237Z,100.00
2019-06-07T03:40:21.736Z,100.00
2019-06-07T03:42:48.357Z,100.00
2019-06-07T03:45:14.841Z,100.00
2019-06-07T03:47:42.652Z,100.00
2019-06-07T03:50:09.850Z,100.00
2019-06-07T03:52:39.106Z,100.00
2019-06-07T03:55:04.716Z,100.00
2019-06-07T03:58:24.849Z,100.00
2019-06-07T03:59:59.698Z,100.00
2019-06-07T04:02:30.369Z,100.00
2019-06-07T04:04:57.548Z,100.00
2019-06-07T04:07:24.107Z,100.00
2019-06-07T04:09:50.632Z,100.00
2019-06-07T04:12:17.085Z,100.00
2019-06-07T04:14:43.557Z,100.00
2019-06-07T04:17:09.992Z,100.00
2019-06-07T04:19:39.480Z,100.00
2019-06-07T04:22:04.856Z,100.00
2019-06-07T04:24:33.806Z,100.00
2019-06-07T04:26:59.933Z,100.00
2019-06-07T04:29:47.897Z,100.00
2019-06-07T04:31:57.762Z,100.00
2019-06-07T04:34:24.222Z,100.00
2019-06-07T04:36:58.774Z,100.00
2019-06-07T04:39:20.371Z,100.00
2019-06-07T04:41:47.839Z,100.00
2019-06-07T04:44:14.669Z,100.00
2019-06-07T04:46:42.657Z,100.00
2019-06-07T04:49:11.386Z,100.00
2019-06-07T04:51:41.140Z,100.00
2019-06-07T04:54:08.247Z,100.00
2019-06-07T04:56:40.837Z,100.00
2019-06-07T04:59:02.940Z,100.00
2019-06-07T05:01:30.793Z,100.00
2019-06-07T05:03:57.738Z,100.00
2019-06-07T05:06:25.600Z,100.00
2019-06-07T05:08:54.244Z,100.00
2019-06-07T05:11:20.703Z,100.00
2019-06-07T05:13:47.150Z,100.00
2019-06-07T05:16:15.399Z,100.00
2019-06-07T05:18:43.292Z,100.00
2019-06-07T05:21:10.045Z,100.00
2019-06-07T05:24:05.343Z,100.00
2019-06-07T05:26:04.762Z,100.00
2019-06-07T05:28:32.552Z,100.00
2019-06-07T05:31:04.331Z,100.00
2019-06-07T05:33:27.325Z,100.00
2019-06-07T05:35:53.742Z,100.00
2019-06-07T05:38:20.122Z,100.00
2019-06-07T05:40:48.608Z,100.00
2019-06-07T05:43:24.023Z,100.00
2019-06-07T05:45:51.444Z,100.00
2019-06-07T05:48:17.862Z,98.64
2019-06-07T05:50:55.785Z,99.84
2019-06-07T05:53:12.567Z,100.00
2019-06-07T05:55:44.208Z,95.83
2019-06-07T05:58:07.242Z,99.00
2019-06-07T06:00:36.074Z,96.04
2019-06-07T06:03:05.760Z,100.00
2019-06-07T06:05:36.541Z,100.00
2019-06-07T06:07:59.212Z,100.00
2019-06-07T06:10:25.594Z,100.00
2019-06-07T06:12:52.237Z,95.71
2019-06-07T06:15:18.724Z,96.26
2019-06-07T06:17:48.956Z,100.00
2019-06-07T06:20:14.234Z,100.00
2019-06-07T06:22:44.793Z,97.87
2019-06-07T06:30:07.691Z,88.66
2019-06-07T06:32:49.285Z,92.10
2019-06-07T06:35:03.154Z,89.43
2019-06-07T06:37:29.553Z,93.54
2019-06-07T06:39:55.933Z,85.89
2019-06-07T06:42:22.335Z,88.94
2019-06-07T06:44:52.268Z,88.51
2019-06-07T06:47:17.873Z,82.61
2019-06-07T06:49:46.859Z,78.28
2019-06-07T06:52:12.572Z,77.46
2019-06-07T06:54:42.984Z,83.28
2019-06-07T06:57:18.917Z,91.35
2019-06-07T06:59:39.385Z,83.30
2019-06-07T07:02:03.959Z,74.59
2019-06-07T07:04:30.854Z,79.96
2019-06-07T07:06:57.372Z,87.25
2019-06-07T07:09:23.963Z,82.39
2019-06-07T07:12:08.362Z,73.99
2019-06-07T07:14:18.703Z,71.79
2019-06-07T07:16:49.657Z,67.09
2019-06-07T07:19:13.415Z,68.73
2019-06-07T07:21:39.795Z,68.92
2019-06-07T07:24:21.195Z,68.21
2019-06-07T07:26:34.597Z,70.21
2019-06-07T07:29:01.007Z,67.21
2019-06-07T07:31:27.416Z,64.43
2019-06-07T07:36:38.264Z,71.10
2019-06-07T07:38:56.590Z,73.93
2019-06-07T07:41:18.694Z,79.30
2019-06-07T07:43:51.824Z,70.50
2019-06-07T07:46:28.984Z,73.07
2019-06-07T07:48:41.721Z,67.37
2019-06-07T07:51:08.111Z,63.96
2019-06-07T07:53:48.682Z,59.15
2019-06-07T07:56:03.120Z,64.54
2019-06-07T07:58:29.676Z,63.27
2019-06-07T08:01:07.722Z,57.94
2019-06-07T08:03:24.436Z,54.80
2019-06-07T08:05:52.038Z,60.63
2019-06-07T08:08:19.150Z,62.00
2019-06-07T08:10:48.049Z,67.43
2019-06-07T08:13:24.506Z,65.27
2019-06-07T08:15:42.192Z,58.42
2019-06-07T08:18:08.662Z,56.53
2019-06-07T08:20:35.046Z,57.48
2019-06-07T08:23:01.468Z,61.29
2019-06-07T08:25:27.860Z,58.63
2019-06-07T08:27:57.077Z,57.54
2019-06-07T08:30:48.145Z,53.66
2019-06-07T08:32:55.916Z,52.28
2019-06-07T08:36:03.205Z,54.46
2019-06-07T08:38:21.494Z,54.87
2019-06-07T08:40:17.518Z,51.19
2019-06-07T08:43:02.889Z,59.43
2019-06-07T08:45:12.750Z,56.80
2019-06-07T08:47:39.132Z,60.47
2019-06-07T08:50:08.173Z,58.07
2019-06-07T08:52:34.692Z,57.20
2019-06-07T08:55:04.795Z,59.24
2019-06-07T08:57:29.365Z,50.96
2019-06-07T08:59:59.874Z,52.75
2019-06-07T09:02:25.817Z,53.79
2019-06-07T09:04:54.786Z,50.39
2019-06-07T09:07:22.118Z,50.90
2019-06-07T09:09:48.767Z,54.64
2019-06-07T09:12:15.132Z,53.71
2019-06-07T09:14:58.642Z,54.99
2019-06-07T09:17:12.327Z,63.13
2019-06-07T09:19:38.188Z,49.66
2019-06-07T09:22:10.257Z,47.29
2019-06-07T09:24:32.872Z,52.01
2019-06-07T09:27:02.451Z,49.82
2019-06-07T09:29:28.366Z,48.22
2019-06-07T09:31:55.914Z,54.81
2019-06-07T09:34:23.949Z,49.95
2019-06-07T09:36:50.473Z,52.44
2019-06-07T09:39:16.855Z,56.42
2019-06-07T09:41:49.247Z,46.17
2019-06-07T09:44:23.793Z,45.56
2019-06-07T09:46:39.855Z,48.91
2019-06-07T09:49:17.605Z,65.62
2019-06-07T09:51:34.589Z,67.18
2019-06-07T09:54:05.180Z,60.86
2019-06-07T09:56:29.334Z,47.34
2019-06-07T09:58:55.764Z,49.66
2019-06-07T10:01:22.165Z,49.81
2019-06-07T10:03:48.526Z,68.80
2019-06-07T10:06:14.913Z,46.85
2019-06-07T10:11:12.488Z,43.64
2019-06-07T10:13:38.897Z,42.03
2019-06-07T10:16:05.312Z,44.65
2019-06-07T10:18:31.674Z,46.34
2019-06-07T10:20:59.301Z,55.80
2019-06-07T10:23:25.767Z,43.21
2019-06-07T10:25:52.170Z,43.97
2019-06-07T10:28:18.543Z,58.76
2019-06-07T10:30:45.020Z,49.01
2019-06-07T10:33:11.427Z,49.34
2019-06-07T10:35:37.853Z,56.67
2019-06-07T10:38:04.579Z,57.27
2019-06-07T10:40:31.137Z,53.40
2019-06-07T10:42:57.513Z,46.67
2019-06-07T10:45:23.932Z,46.67
2019-06-07T10:47:50.315Z,43.32
2019-06-07T10:50:18.934Z,42.92
2019-06-07T10:52:45.352Z,38.15
2019-06-07T10:55:12.676Z,53.86
2019-06-07T10:57:39.317Z,48.97
2019-06-07T11:00:07.123Z,46.35
2019-06-07T11:02:33.653Z,35.22
2019-06-07T11:05:00.017Z,34.42
2019-06-07T11:07:26.523Z,35.13
2019-06-07T11:10:06.318Z,48.48
2019-06-07T11:12:21.269Z,38.08
2019-06-07T11:14:47.674Z,37.87
2019-06-07T11:17:15.784Z,40.66
2019-06-07T11:19:42.523Z,40.43
2019-06-07T11:22:10.177Z,46.75
2019-06-07T11:24:36.630Z,44.28
2019-06-07T11:27:03.233Z,43.35
2019-06-07T11:29:29.593Z,40.54
2019-06-07T11:31:55.993Z,46.30
2019-06-07T11:34:22.367Z,36.11
2019-06-07T11:36:51.077Z,43.12
2019-06-07T11:39:17.078Z,46.28
2019-06-07T11:41:43.481Z,33.22
2019-06-07T11:44:17.228Z,37.04
2019-06-07T11:46:43.624Z,36.05
2019-06-07T11:49:10.834Z,31.91
2019-06-07T11:51:37.722Z,31.62
2019-06-07T11:54:04.096Z,34.96
2019-06-07T11:56:30.515Z,35.70
2019-06-07T11:58:56.903Z,34.34
2019-06-07T12:01:23.419Z,35.66
2019-06-07T12:03:49.806Z,41.38
2019-06-07T12:06:16.484Z,42.69
2019-06-07T12:08:42.977Z,43.42
2019-06-07T12:11:10.161Z,46.91
2019-06-07T12:13:36.805Z,45.94
2019-06-07T12:16:03.296Z,45.82
2019-06-07T12:18:29.706Z,49.31
2019-06-07T12:20:56.126Z,49.31
2019-06-07T12:23:22.495Z,44.70
2019-06-07T12:25:48.912Z,47.79
2019-06-07T12:28:15.288Z,47.79
2019-06-07T12:30:42.961Z,45.77
2019-06-07T12:33:09.374Z,44.52
2019-06-07T12:35:35.767Z,51.65
2019-06-07T12:38:02.156Z,42.67
2019-06-07T12:40:32.266Z,43.78
2019-06-07T12:42:56.859Z,44.76
2019-06-07T12:45:43.843Z,45.50
2019-06-07T12:47:51.536Z,48.52
2019-06-07T12:50:19.478Z,41.83
2019-06-07T12:52:46.028Z,46.98
2019-06-07T12:55:13.942Z,46.98
2019-06-07T12:57:40.509Z,44.77
2019-06-07T13:00:08.671Z,45.55
2019-06-07T13:02:35.101Z,46.31
2019-06-07T13:05:04.627Z,47.51
2019-06-07T13:07:29.936Z,46.17
2019-06-07T13:09:56.347Z,46.91
2019-06-07T13:12:23.771Z,45.48
2019-06-07T13:14:50.496Z,43.16
2019-06-07T13:17:17.921Z,51.73
2019-06-07T13:19:44.567Z,47.87
2019-06-07T13:22:11.091Z,45.58
2019-06-07T13:24:37.474Z,43.81
2019-06-07T13:27:03.842Z,43.69
2019-06-07T13:29:32.249Z,42.56
2019-06-07T13:31:58.531Z,44.83
2019-06-07T13:34:24.928Z,44.64
2019-06-07T13:36:51.294Z,46.47
2019-06-07T13:39:17.710Z,46.47
2019-06-07T13:41:44.120Z,43.41
2019-06-07T13:44:10.591Z,50.43
2019-06-07T13:46:36.946Z,44.56
2019-06-07T13:49:03.567Z,44.56
2019-06-07T13:51:33.139Z,40.45
2019-06-07T13:53:58.496Z,41.56
2019-06-07T13:56:26.029Z,43.78
2019-06-07T13:58:52.562Z,40.59
2019-06-07T14:01:20.245Z,40.11
2019-06-07T14:03:46.825Z,42.62
2019-06-07T14:06:13.187Z,40.80
2019-06-07T14:08:39.582Z,43.29
2019-06-07T14:11:05.979Z,44.51
2019-06-07T14:13:32.387Z,41.09
2019-06-07T14:15:58.771Z,41.25
2019-06-07T14:18:26.442Z,41.41
2019-06-07T14:20:52.963Z,42.21
2019-06-07T14:23:35.296Z,39.98
2019-06-07T14:25:47.650Z,41.41
2019-06-07T14:28:14.145Z,42.58
2019-06-07T14:30:40.524Z,39.18
2019-06-07T14:33:06.890Z,40.05
2019-06-07T14:35:33.680Z,39.39
2019-06-07T14:38:00.189Z,40.08
2019-06-07T14:40:27.918Z,39.91
2019-06-07T14:42:54.547Z,39.52
2019-06-07T14:45:21.114Z,37.90
2019-06-07T14:47:47.498Z,38.83
2019-06-07T14:50:14.475Z,39.32
2019-06-07T14:52:40.889Z,39.97
2019-06-07T14:55:08.082Z,38.44
2019-06-07T14:57:35.486Z,41.54
2019-06-07T15:00:10.397Z,38.29
2019-06-07T15:02:34.787Z,33.72
2019-06-07T15:04:59.648Z,32.19
2019-06-07T15:07:26.715Z,31.01
2019-06-07T15:09:53.215Z,26.54
2019-06-07T15:12:25.204Z,26.93
2019-06-07T15:14:47.965Z,26.37
2019-06-07T15:17:14.367Z,28.13
2019-06-07T15:19:40.749Z,27.11
2019-06-07T15:22:07.116Z,25.24
2019-06-07T15:24:36.144Z,26.79
2019-06-07T15:27:01.862Z,25.61
2019-06-07T15:29:29.654Z,28.89
2019-06-07T15:31:56.264Z,28.26
2019-06-07T15:34:22.644Z,27.57
2019-06-07T15:36:49.007Z,30.93
2019-06-07T15:39:15.418Z,30.47
2019-06-07T15:41:41.787Z,28.68
2019-06-07T15:44:08.160Z,26.07
2019-06-07T15:46:35.681Z,27.77
2019-06-07T15:49:02.459Z,28.35
2019-06-07T15:51:30.555Z,24.35
2019-06-07T15:53:57.075Z,26.85
2019-06-07T15:56:23.505Z,25.19
2019-06-07T15:58:49.869Z,29.47
2019-06-07T16:01:16.285Z,31.43
2019-06-07T16:03:42.703Z,32.64
2019-06-07T16:06:09.116Z,35.71
2019-06-07T16:08:36.309Z,37.07
2019-06-07T16:11:02.797Z,38.52
2019-06-07T16:13:29.328Z,38.50
2019-06-07T16:15:55.750Z,40.01
2019-06-07T16:18:22.179Z,40.76
2019-06-07T16:20:48.522Z,41.04
2019-06-07T16:23:14.952Z,40.22
2019-06-07T16:25:42.138Z,43.06
2019-06-07T16:28:08.679Z,43.16
2019-06-07T16:30:36.304Z,43.55
2019-06-07T16:33:02.930Z,45.00
2019-06-07T16:35:29.351Z,45.00
2019-06-07T16:37:55.734Z,44.36
2019-06-07T16:40:22.697Z,44.44
2019-06-07T16:42:49.289Z,45.23
2019-06-07T16:45:15.888Z,44.73
2019-06-07T16:47:43.680Z,45.50
2019-06-07T16:50:11.266Z,46.37
2019-06-07T16:52:37.657Z,47.18
2019-06-07T16:55:04.129Z,46.41
2019-06-07T16:57:30.531Z,47.35
2019-06-07T16:59:56.932Z,46.91
2019-06-07T17:02:23.308Z,47.85
2019-06-07T17:04:49.810Z,48.27
2019-06-07T17:07:16.228Z,50.81
2019-06-07T17:09:43.117Z,49.29
2019-06-07T17:12:10.965Z,49.20
2019-06-07T17:14:38.344Z,49.49
2019-06-07T17:17:04.845Z,49.82
2019-06-07T17:19:31.251Z,50.62
2019-06-07T17:21:57.618Z,51.01
2019-06-07T17:24:26.722Z,50.54
2019-06-07T17:26:52.331Z,52.83
2019-06-07T17:29:18.789Z,52.15
2019-06-07T17:31:46.419Z,51.61
2019-06-07T17:34:12.956Z,52.12
2019-06-07T17:36:40.307Z,52.53
2019-06-07T17:39:07.098Z,52.88
2019-06-07T17:41:50.265Z,53.53
2019-06-07T17:44:01.921Z,53.59
2019-06-07T17:46:28.323Z,53.73
2019-06-07T17:48:54.713Z,54.04
2019-06-07T17:51:21.121Z,55.69
2019-06-07T17:53:47.818Z,55.14
2019-06-07T17:56:14.280Z,55.90
2019-06-07T17:58:40.654Z,58.20
2019-06-07T18:01:07.064Z,56.47
2019-06-07T18:03:33.443Z,55.87
2019-06-07T18:06:01.438Z,56.10
2019-06-07T18:08:29.364Z,56.96
2019-06-07T18:10:55.985Z,56.92
2019-06-07T18:13:22.491Z,58.09
2019-06-07T18:15:53.957Z,58.04
2019-06-07T18:18:17.403Z,58.56
2019-06-07T18:20:45.071Z,58.49
2019-06-07T18:23:11.802Z,59.90
2019-06-07T18:25:38.289Z,59.14
2019-06-07T18:28:05.192Z,59.74
2019-06-07T18:30:31.595Z,61.03
2019-06-07T18:32:59.245Z,61.10
2019-06-07T18:35:25.895Z,61.41
2019-06-07T18:37:53.086Z,61.35
2019-06-07T18:40:19.531Z,62.70
2019-06-07T18:42:47.104Z,62.56
2019-06-07T18:45:13.573Z,62.20
2019-06-07T18:47:39.961Z,63.50
2019-06-07T18:50:06.660Z,63.37
2019-06-07T18:52:35.279Z,63.73
2019-06-07T18:55:01.757Z,63.28
2019-06-07T18:57:28.150Z,63.62
2019-06-07T18:59:54.677Z,64.85
2019-06-07T19:02:21.061Z,64.66
2019-06-07T19:04:48.005Z,64.53
2019-06-07T19:07:14.738Z,66.07
2019-06-07T19:09:41.119Z,66.23
2019-06-07T19:12:07.518Z,67.02
2019-06-07T19:14:37.345Z,68.38
2019-06-07T19:17:02.207Z,69.34
2019-06-07T19:19:28.602Z,69.89
2019-06-07T19:21:56.088Z,71.61
2019-06-07T19:24:22.710Z,71.87
2019-06-07T19:26:50.522Z,72.60
2019-06-07T19:29:17.005Z,72.47
2019-06-07T19:31:43.412Z,72.72
2019-06-07T19:34:09.801Z,73.27
2019-06-07T19:36:48.248Z,74.10
2019-06-07T19:39:05.469Z,74.20
2019-06-07T19:41:31.847Z,74.44
2019-06-07T19:43:58.327Z,75.24
2019-06-07T19:46:24.733Z,75.70
2019-06-07T19:48:52.430Z,75.53
2019-06-07T19:51:20.437Z,75.17
2019-06-07T19:53:47.282Z,76.46
2019-06-07T19:56:13.832Z,76.17
2019-06-07T19:58:40.199Z,75.62
2019-06-07T20:01:06.602Z,77.04
2019-06-07T20:03:32.996Z,76.02
2019-06-07T20:06:00.221Z,76.94
2019-06-07T20:08:26.635Z,76.31
2019-06-07T20:10:54.354Z,76.33
2019-06-07T20:13:20.842Z,77.39
2019-06-07T20:15:47.210Z,77.54
2019-06-07T20:18:13.605Z,77.59
2019-06-07T20:20:40.026Z,78.83
2019-06-07T20:23:06.447Z,79.02
2019-06-07T20:25:33.266Z,79.92
2019-06-07T20:28:00.084Z,79.87
2019-06-07T20:30:27.760Z,80.26
2019-06-07T20:32:54.118Z,80.28
2019-06-07T20:35:20.538Z,80.22
2019-06-07T20:37:46.971Z,79.86
2019-06-07T20:40:23.517Z,80.59
2019-06-07T20:42:41.758Z,80.86
2019-06-07T20:45:08.656Z,81.25
2019-06-07T20:47:35.032Z,81.92
2019-06-07T20:50:02.420Z,81.94
2019-06-07T20:52:28.840Z,82.38
2019-06-07T20:54:55.227Z,82.80
2019-06-07T20:57:21.885Z,82.58
2019-06-07T20:59:48.286Z,83.20
2019-06-07T21:02:14.690Z,83.28
2019-06-07T21:04:41.062Z,83.69
2019-06-07T21:07:08.133Z,83.61
2019-06-07T21:09:35.119Z,84.06
2019-06-07T21:12:01.937Z,84.30
2019-06-07T21:14:28.434Z,84.77
2019-06-07T21:16:54.903Z,85.15
2019-06-07T21:19:21.298Z,85.49
2019-06-07T21:21:47.892Z,85.73
2019-06-07T21:24:14.286Z,85.42
2019-06-07T21:26:40.707Z,87.11
2019-06-07T21:29:07.172Z,87.20
2019-06-07T21:31:33.593Z,87.53
2019-06-07T21:34:01.259Z,87.42
2019-06-07T21:36:27.889Z,88.16
2019-06-07T21:38:54.265Z,88.90
2019-06-07T21:41:20.688Z,89.34
2019-06-07T21:43:47.080Z,89.69
2019-06-07T21:46:20.267Z,89.94
2019-06-07T21:48:41.768Z,90.44
2019-06-07T21:51:08.614Z,91.35
2019-06-07T21:53:35.075Z,91.43
2019-06-07T21:56:02.734Z,91.54
2019-06-07T21:58:29.360Z,91.84
2019-06-07T22:01:10.039Z,92.03
2019-06-07T22:03:38.994Z,92.97
2019-06-07T22:06:05.697Z,93.08
2019-06-07T22:08:32.209Z,93.33
2019-06-07T22:10:58.669Z,93.86
2019-06-07T22:13:25.067Z,94.50
2019-06-07T22:15:51.451Z,94.07
2019-06-07T22:18:17.863Z,94.79
2019-06-07T22:20:44.243Z,94.88
2019-06-07T22:23:10.932Z,94.92
2019-06-07T22:25:37.324Z,95.21
2019-06-07T22:28:03.741Z,95.59
2019-06-07T22:30:30.161Z,96.13
2019-06-07T22:32:56.520Z,96.67
2019-06-07T22:35:22.898Z,96.71
2019-06-07T22:37:49.320Z,97.58
2019-06-07T22:40:15.692Z,97.94
2019-06-07T22:42:42.087Z,99.14
2019-06-07T22:45:10.651Z,99.75
2019-06-07T22:47:36.871Z,99.96
2019-06-07T22:50:03.808Z,100.00
2019-06-07T22:52:30.211Z,100.00
2019-06-07T22:54:56.615Z,100.00
2019-06-07T22:57:25.386Z,100.00
2019-06-07T22:59:51.815Z,100.00
2019-06-07T23:02:18.854Z,100.00
2019-06-07T23:04:45.312Z,100.00
2019-06-07T23:07:12.952Z,100.00
2019-06-07T23:09:39.431Z,100.00
2019-06-07T23:12:05.863Z,100.00
2019-06-07T23:14:32.245Z,100.00
2019-06-07T23:16:58.688Z,100.00
2019-06-07T23:19:25.177Z,100.00
2019-06-07T23:21:51.561Z,100.00
2019-06-07T23:24:20.130Z,100.00
2019-06-07T23:26:46.305Z,100.00
2019-06-07T23:29:12.729Z,100.00
2019-06-07T23:31:39.105Z,100.00
2019-06-07T23:34:05.520Z,100.00
2019-06-07T23:36:32.174Z,100.00
2019-06-07T23:38:58.597Z,100.00
2019-06-07T23:41:25.009Z,100.00
2019-06-07T23:43:51.411Z,100.00
2019-06-07T23:46:17.788Z,100.00
2019-06-07T23:48:45.268Z,100.00
2019-06-07T23:51:11.665Z,100.00
2019-06-07T23:53:38.058Z,100.00
2019-06-07T23:56:04.485Z,100.00
2019-06-07T23:58:30.969Z,100.00
